Pindi Bhattian Weather



Pindi Bhattian's Current Weather

Temprature 43.15o clear sky

clear sky

Rain: 0 %

Min Temprature43.15o
Max Temprature43.15o
Humidity15
Wind Speed3.57 m/h
Sun Rise05:02:42
Sun Set19:16:25
Current Time: 26-Jun-2019 15:46:58
Lat/Lon: 31.9, 73.27




Pindi Bhattian's Geo Location



Pindi Bhattian's Weather Forecast

Time Overall Temp Min Temp Max Temp Humidity Wind Speed Rain
26-Jun-2019 (Wed)
17:00:00 clear sky 43.220 43.150 43.220 15 3.57 m/h 0 %
20:00:00 light rain 39.300 39.247 39.300 20 2 m/h 19 %
23:00:00 scattered clouds 37.180 37.140 37.180 24 0.97 m/h 0 %
27-Jun-2019 (Thu)
02:00:00 clear sky 35.700 35.679 35.700 26 1.11 m/h 0 %
05:00:00 clear sky 33.865 33.865 33.865 28 0.6 m/h 0 %
08:00:00 light rain 37.350 37.350 37.350 21 1.83 m/h 19 %
11:00:00 light rain 41.774 41.774 41.774 14 2.95 m/h 6 %
14:00:00 clear sky 44.950 44.950 44.950 13 0.67 m/h 0 %
17:00:00 clear sky 45.180 45.180 45.180 10 1.9 m/h 0 %
20:00:00 scattered clouds 40.394 40.394 40.394 15 1.68 m/h 0 %
23:00:00 few clouds 37.235 37.235 37.235 24 7.05 m/h 0 %
28-Jun-2019 (Fri)
02:00:00 clear sky 36.328 36.328 36.328 24 4.97 m/h 0 %
05:00:00 clear sky 34.228 34.228 34.228 28 2.14 m/h 0 %
08:00:00 clear sky 38.849 38.849 38.849 25 4.7 m/h 0 %
11:00:00 few clouds 43.425 43.425 43.425 18 1.71 m/h 0 %
14:00:00 clear sky 46.531 46.531 46.531 12 4.24 m/h 0 %
17:00:00 few clouds 45.350 45.350 45.350 13 2.88 m/h 0 %
20:00:00 light rain 38.650 38.650 38.650 20 3.54 m/h 13 %
23:00:00 few clouds 37.172 37.172 37.172 22 3.47 m/h 0 %
29-Jun-2019 (Sat)
02:00:00 clear sky 35.972 35.972 35.972 26 2.3 m/h 0 %
05:00:00 clear sky 34.669 34.669 34.669 29 2.53 m/h 0 %
08:00:00 clear sky 38.657 38.657 38.657 27 5.53 m/h 0 %
11:00:00 clear sky 43.750 43.750 43.750 19 4.81 m/h 0 %
14:00:00 clear sky 46.850 46.850 46.850 13 4.65 m/h 0 %
17:00:00 clear sky 46.691 46.691 46.691 11 5.42 m/h 0 %
20:00:00 clear sky 42.150 42.150 42.150 14 3.58 m/h 0 %
23:00:00 clear sky 38.650 38.650 38.650 19 0.42 m/h 0 %
30-Jun-2019 (Sun)
02:00:00 clear sky 37.176 37.176 37.176 21 3.28 m/h 0 %
05:00:00 clear sky 35.042 35.042 35.042 25 1.25 m/h 0 %
08:00:00 clear sky 39.142 39.142 39.142 23 3.45 m/h 0 %
11:00:00 clear sky 44.118 44.118 44.118 19 4.17 m/h 0 %
14:00:00 clear sky 47.109 47.109 47.109 13 4.86 m/h 0 %
17:00:00 clear sky 46.950 46.950 46.950 12 5.78 m/h 0 %
20:00:00 clear sky 42.750 42.750 42.750 14 4.52 m/h 0 %
23:00:00 clear sky 38.550 38.550 38.550 19 4.94 m/h 0 %
01-Jul-2019 (Mon)
02:00:00 clear sky 37.050 37.050 37.050 22 2.99 m/h 0 %
05:00:00 clear sky 35.835 35.835 35.835 24 3.65 m/h 0 %
08:00:00 clear sky 39.450 39.450 39.450 30 4.23 m/h 0 %
11:00:00 clear sky 44.750 44.750 44.750 20 4.44 m/h 0 %
14:00:00 clear sky 48.050 48.050 48.050 12 4.42 m/h 0 %

Famous Cities (60)